Time;durP1;ratioP1;P1;durP2;ratioP2;P2;SDS_P1;SDS_P2;PMS_P1;PMS_P2;Temp;Humidity;BMP_temperature;BMP_pressure;BME280_temperature;BME280_humidity;BME280_pressure;Samples;Min_cycle;Max_cycle;Signal;HPM_P1;HPM_P2
2022/10/02 00:00:08;;;;;;;18.90;3.83;;;11.40;1.00;;;;;;5032867;28;20293;-62
2022/10/02 00:02:40;;;;;;;18.83;4.47;;;11.40;99.90;;;;;;5033731;28;20650;-61
2022/10/02 00:05:25;;;;;;;16.67;4.53;;;11.30;1.00;;;;;;5034216;28;20601;-62
2022/10/02 00:08:05;;;;;;;20.13;4.67;;;11.20;1.00;;;;;;5036338;28;20556;-61
2022/10/02 00:10:40;;;;;;;15.67;4.27;;;11.20;99.90;;;;;;5037411;28;20269;-61
2022/10/02 00:13:18;;;;;;;20.43;4.03;;;11.20;1.00;;;;;;5036654;28;20249;-62
2022/10/02 00:15:47;;;;;;;14.77;3.63;;;11.20;99.90;;;;;;5036032;28;20612;-61
2022/10/02 00:18:19;;;;;;;13.20;2.93;;;11.10;99.90;;;;;;5030277;28;20453;-61
2022/10/02 00:21:00;;;;;;;15.27;3.90;;;11.20;99.90;;;;;;5036217;28;20713;-62
2022/10/02 00:23:42;;;;;;;15.00;4.10;;;11.10;99.90;;;;;;5025540;28;20199;-62
2022/10/02 00:26:24;;;;;;;12.93;4.23;;;11.20;99.90;;;;;;5037090;28;20251;-63
2022/10/02 00:29:29;;;;;;;14.80;3.60;;;11.20;99.90;;;;;;5036840;28;20573;-61
2022/10/02 00:32:03;;;;;;;18.20;4.27;;;11.40;99.90;;;;;;5034475;28;20257;-63
2022/10/02 00:35:13;;;;;;;23.67;4.50;;;11.30;99.90;;;;;;5018635;28;20206;-62
2022/10/02 00:38:04;;;;;;;12.23;4.17;;;11.50;99.90;;;;;;5035063;28;20197;-62
2022/10/02 00:40:52;;;;;;;16.40;4.00;;;11.40;54.80;;;;;;5035575;28;20879;-63
2022/10/02 00:43:45;;;;;;;16.57;3.80;;;11.40;99.90;;;;;;5036190;28;20194;-63
2022/10/02 00:46:34;;;;;;;17.63;3.73;;;11.50;99.90;;;;;;5034146;28;20216;-63
2022/10/02 00:49:17;;;;;;;17.60;4.13;;;11.50;99.90;;;;;;5034084;28;20214;-64
2022/10/02 00:51:46;;;;;;;16.73;4.10;;;11.60;99.90;;;;;;5037185;28;20203;-63
2022/10/02 00:54:42;;;;;;;15.97;3.73;;;11.70;21.60;;;;;;5036097;28;20196;-63
2022/10/02 00:57:38;;;;;;;20.60;4.73;;;11.70;57.30;;;;;;5033784;28;20200;-64
2022/10/02 01:00:17;;;;;;;17.17;5.50;;;11.70;99.90;;;;;;5023707;28;20367;-63
2022/10/02 01:03:14;;;;;;;23.83;4.53;;;11.70;20.80;;;;;;5034426;28;20212;-63
2022/10/02 01:05:41;;;;;;;19.17;4.70;;;11.80;99.90;;;;;;5036705;28;20210;-63
2022/10/02 01:08:08;;;;;;;19.83;4.83;;;11.70;99.90;;;;;;5036620;28;20586;-61
2022/10/02 01:10:37;;;;;;;25.37;5.47;;;11.60;1.00;;;;;;5038269;28;20264;-61
2022/10/02 01:13:05;;;;;;;25.40;4.60;;;11.70;1.00;;;;;;5020635;28;20220;-61
2022/10/02 01:15:36;;;;;;;17.20;4.70;;;11.70;1.00;;;;;;5019742;28;20215;-61
2022/10/02 01:18:04;;;;;;;25.50;5.03;;;11.70;1.00;;;;;;5038128;28;20280;-61
2022/10/02 01:20:42;;;;;;;26.60;5.07;;;11.70;1.00;;;;;;5044167;28;20294;-59
2022/10/02 01:23:18;;;;;;;25.60;6.10;;;11.70;1.00;;;;;;5035239;28;20701;-60
2022/10/02 01:25:45;;;;;;;33.23;7.07;;;11.80;1.00;;;;;;5038569;28;20235;-60
2022/10/02 01:28:13;;;;;;;23.43;5.17;;;11.80;10.10;;;;;;5034234;28;20196;-60
2022/10/02 01:30:43;;;;;;;23.23;4.90;;;12.00;24.00;;;;;;5020208;28;20705;-60
2022/10/02 01:33:12;;;;;;;27.03;5.80;;;12.20;1.00;;;;;;5037880;28;20183;-61
2022/10/02 01:35:39;;;;;;;19.73;5.23;;;12.30;99.90;;;;;;5019166;28;20700;-59
2022/10/02 01:38:13;;;;;;;29.50;6.00;;;12.40;99.90;;;;;;5051320;28;20282;-60
2022/10/02 01:40:40;;;;;;;27.80;5.33;;;12.50;99.90;;;;;;5039304;28;20599;-61
2022/10/02 01:43:15;;;;;;;27.63;5.77;;;12.50;99.90;;;;;;5012598;28;20238;-60
2022/10/02 01:45:48;;;;;;;27.90;6.27;;;12.50;99.90;;;;;;5038414;28;20199;-61
2022/10/02 01:48:47;;;;;;;25.67;6.27;;;12.50;99.90;;;;;;5044325;28;20342;-61
2022/10/02 01:51:20;;;;;;;28.83;6.77;;;12.50;1.00;;;;;;4996129;28;20513;-61
2022/10/02 01:53:56;;;;;;;23.80;5.60;;;12.40;1.00;;;;;;5052613;28;20220;-61
2022/10/02 01:56:46;;;;;;;28.77;7.00;;;12.40;1.00;;;;;;5039126;28;20188;-61
2022/10/02 01:59:16;;;;;;;29.63;8.27;;;12.30;1.00;;;;;;5035649;28;20549;-61
2022/10/02 02:01:57;;;;;;;26.50;6.27;;;12.40;62.90;;;;;;5028470;28;20273;-59
2022/10/02 02:04:31;;;;;;;29.13;6.20;;;12.40;99.90;;;;;;5038771;28;20199;-60
2022/10/02 02:07:24;;;;;;;38.30;7.03;;;12.30;99.90;;;;;;5037743;28;20232;-60
2022/10/02 02:09:57;;;;;;;24.10;6.53;;;12.40;1.00;;;;;;5019320;28;20292;-59
2022/10/02 02:12:39;;;;;;;29.10;8.37;;;12.40;1.00;;;;;;5022344;28;20215;-60
2022/10/02 02:15:14;;;;;;;26.57;6.60;;;12.30;99.90;;;;;;5035426;28;20211;-58
2022/10/02 02:17:53;;;;;;;33.80;6.77;;;12.30;1.00;;;;;;5039321;28;20225;-60
2022/10/02 02:20:33;;;;;;;36.90;7.17;;;12.20;1.00;;;;;;5036456;28;20223;-59
2022/10/02 02:23:09;;;;;;;30.60;7.10;;;12.40;41.30;;;;;;5038640;28;20200;-60
2022/10/02 02:25:40;;;;;;;30.50;7.00;;;12.30;1.00;;;;;;5036790;28;20200;-59
2022/10/02 02:28:11;;;;;;;28.20;6.77;;;12.20;1.00;;;;;;5026856;28;20195;-60
2022/10/02 02:30:42;;;;;;;34.10;6.87;;;12.20;99.90;;;;;;5039104;28;20610;-62
2022/10/02 02:33:26;;;;;;;30.80;7.37;;;12.30;1.00;;;;;;5051599;28;20192;-62
2022/10/02 02:35:57;;;;;;;32.87;8.17;;;12.40;99.90;;;;;;5039029;28;20200;-62
2022/10/02 02:38:43;;;;;;;35.40;8.50;;;12.40;99.90;;;;;;5039118;28;20631;-60
2022/10/02 02:41:21;;;;;;;29.50;9.60;;;12.40;99.90;;;;;;5021013;28;20187;-60
2022/10/02 02:43:51;;;;;;;28.60;8.70;;;12.40;99.90;;;;;;5037907;28;20732;-60
2022/10/02 02:46:29;;;;;;;45.60;10.83;;;12.40;99.90;;;;;;5020222;28;20613;-60
2022/10/02 02:49:05;;;;;;;32.13;9.97;;;12.50;99.90;;;;;;5037463;28;20597;-60
2022/10/02 02:51:38;;;;;;;34.20;11.17;;;12.50;99.90;;;;;;5021265;28;20271;-60
2022/10/02 02:54:20;;;;;;;43.27;12.20;;;12.50;1.00;;;;;;5008572;28;20604;-60
2022/10/02 02:56:48;;;;;;;39.60;13.50;;;12.60;1.00;;;;;;5037826;28;20556;-60
2022/10/02 02:59:19;;;;;;;32.97;12.00;;;12.80;1.00;;;;;;5018712;28;20253;-61
2022/10/02 03:01:46;;;;;;;34.63;11.60;;;12.80;99.90;;;;;;5018731;28;20195;-60
2022/10/02 03:04:13;;;;;;;39.57;12.13;;;12.80;1.00;;;;;;5037257;28;20196;-60
2022/10/02 03:06:44;;;;;;;30.53;11.50;;;12.80;99.90;;;;;;5038379;28;20196;-60
2022/10/02 03:09:18;;;;;;;32.40;11.53;;;12.80;99.90;;;;;;5034957;28;20192;-62
2022/10/02 03:11:58;;;;;;;33.23;12.40;;;12.80;99.90;;;;;;5050922;28;20194;-60
2022/10/02 03:14:36;;;;;;;33.37;11.60;;;12.80;99.90;;;;;;5037990;28;20701;-60
2022/10/02 03:17:12;;;;;;;33.70;11.77;;;12.80;99.90;;;;;;5035008;28;20282;-60
2022/10/02 03:19:42;;;;;;;30.00;11.20;;;12.80;1.00;;;;;;5035979;28;20801;-61
2022/10/02 03:22:18;;;;;;;37.73;12.33;;;12.90;99.90;;;;;;5033401;28;20242;-59
2022/10/02 03:25:12;;;;;;;28.03;12.13;;;12.90;99.90;;;;;;5036724;28;20192;-59
2022/10/02 03:28:00;;;;;;;41.17;11.43;;;12.80;99.90;;;;;;5035952;28;20310;-59
2022/10/02 03:30:28;;;;;;;31.23;11.13;;;12.80;1.00;;;;;;5036545;28;20184;-59
2022/10/02 03:32:59;;;;;;;35.67;11.93;;;12.80;99.90;;;;;;5037249;28;20408;-60
2022/10/02 03:35:27;;;;;;;37.30;12.40;;;12.90;1.00;;;;;;5017621;28;20713;-59
2022/10/02 03:38:05;;;;;;;44.00;15.00;;;12.70;1.00;;;;;;5019501;28;20199;-62
2022/10/02 03:40:32;;;;;;;36.63;14.73;;;12.90;1.00;;;;;;5035219;28;20203;-62
2022/10/02 03:43:03;;;;;;;39.37;16.13;;;13.00;99.90;;;;;;5033280;28;20745;-62
2022/10/02 03:45:30;;;;;;;44.27;12.60;;;13.00;99.90;;;;;;5017074;28;20270;-62
2022/10/02 03:48:17;;;;;;;38.57;12.50;;;13.00;99.90;;;;;;5034673;28;20552;-62
2022/10/02 03:50:44;;;;;;;36.50;12.80;;;12.90;99.90;;;;;;5034482;28;20201;-61
2022/10/02 03:53:17;;;;;;;36.27;13.13;;;12.90;99.90;;;;;;5038059;28;20214;-61
2022/10/02 03:56:01;;;;;;;40.70;14.47;;;12.90;99.90;;;;;;5039052;28;20192;-60
2022/10/02 03:58:28;;;;;;;40.03;13.10;;;12.90;1.00;;;;;;5035986;28;20273;-61
2022/10/02 04:01:25;;;;;;;42.87;14.60;;;12.90;1.00;;;;;;5025918;28;20204;-60
2022/10/02 04:03:58;;;;;;;34.53;13.40;;;13.00;1.00;;;;;;5033531;28;20239;-60
2022/10/02 04:06:55;;;;;;;39.40;15.13;;;12.90;99.90;;;;;;5036575;28;20191;-61
2022/10/02 04:09:35;;;;;;;38.87;14.23;;;12.90;1.00;;;;;;5041507;28;20244;-61
2022/10/02 04:12:19;;;;;;;41.97;14.07;;;12.90;1.00;;;;;;5020592;28;20457;-59
2022/10/02 04:14:59;;;;;;;37.57;13.97;;;13.00;1.00;;;;;;5037227;28;20204;-61
2022/10/02 04:17:52;;;;;;;49.73;17.40;;;13.00;1.00;;;;;;5033066;28;20556;-60
2022/10/02 04:20:32;;;;;;;39.57;17.47;;;13.00;1.00;;;;;;5037591;28;20283;-60
2022/10/02 04:23:27;;;;;;;40.40;14.57;;;13.10;1.00;;;;;;5036328;28;20210;-58
2022/10/02 04:26:03;;;;;;;49.33;15.77;;;13.10;1.00;;;;;;5012815;28;20238;-58
2022/10/02 04:28:38;;;;;;;38.20;14.67;;;13.10;1.00;;;;;;5036986;28;20202;-59
2022/10/02 04:31:11;;;;;;;43.33;15.50;;;13.10;1.00;;;;;;5036786;28;20219;-58
2022/10/02 04:33:39;;;;;;;40.37;15.17;;;13.00;1.00;;;;;;5003919;28;20710;-59
2022/10/02 04:36:24;;;;;;;42.33;15.73;;;12.90;1.00;;;;;;5037474;28;20233;-61
2022/10/02 04:39:21;;;;;;;50.87;16.50;;;12.80;99.90;;;;;;5040841;28;20240;-61
2022/10/02 04:42:08;;;;;;;42.53;15.67;;;12.80;1.00;;;;;;5035105;28;20552;-59
2022/10/02 04:44:38;;;;;;;41.70;14.90;;;12.90;1.00;;;;;;5040893;28;20231;-62
2022/10/02 04:47:18;;;;;;;39.67;12.47;;;13.00;1.00;;;;;;5020368;28;20196;-63
2022/10/02 04:50:06;;;;;;;42.40;12.23;;;13.00;99.90;;;;;;5054876;28;20191;-60
2022/10/02 04:53:16;;;;;;;37.43;11.23;;;13.00;99.90;;;;;;5040593;28;20207;-60
2022/10/02 04:55:57;;;;;;;37.70;10.67;;;13.10;99.90;;;;;;5008032;28;20216;-61
2022/10/02 04:58:46;;;;;;;35.17;11.33;;;13.10;99.90;;;;;;5039847;28;20279;-60
2022/10/02 05:01:27;;;;;;;41.83;12.20;;;13.20;1.00;;;;;;5037668;28;20200;-59
2022/10/02 05:04:42;;;;;;;36.33;12.13;;;13.30;1.00;;;;;;5039305;28;20238;-61
2022/10/02 05:07:59;;;;;;;35.37;11.73;;;13.30;1.00;;;;;;5004196;28;20295;-62
2022/10/02 05:11:10;;;;;;;37.20;11.43;;;13.30;1.00;;;;;;4990184;28;20303;-61
2022/10/02 05:14:15;;;;;;;40.43;13.00;;;13.30;1.00;;;;;;5039325;28;20626;-63
2022/10/02 05:17:12;;;;;;;33.40;10.77;;;13.20;1.00;;;;;;5031136;28;20200;-61
2022/10/02 05:19:56;;;;;;;37.03;11.40;;;13.10;1.00;;;;;;5002016;28;20211;-63
2022/10/02 05:22:58;;;;;;;37.70;12.10;;;13.10;2.20;;;;;;5040695;28;20730;-62
2022/10/02 05:25:34;;;;;;;50.23;13.20;;;13.10;99.90;;;;;;5036830;28;20631;-61
2022/10/02 05:28:16;;;;;;;34.57;11.70;;;13.10;99.90;;;;;;4997482;28;20558;-61
2022/10/02 05:30:53;;;;;;;37.60;11.50;;;13.10;99.90;;;;;;5001239;28;20189;-61
2022/10/02 05:33:30;;;;;;;29.57;10.87;;;13.20;99.90;;;;;;5000515;28;20828;-63
2022/10/02 05:36:25;;;;;;;39.47;10.87;;;13.20;99.90;;;;;;4999137;28;20200;-62
2022/10/02 05:39:06;;;;;;;31.00;11.10;;;13.20;99.90;;;;;;5001303;28;20213;-62
2022/10/02 05:41:52;;;;;;;33.97;10.50;;;13.30;99.90;;;;;;5000102;28;20196;-62
2022/10/02 05:44:44;;;;;;;36.73;11.40;;;13.30;99.90;;;;;;4999193;28;20221;-62
2022/10/02 05:47:21;;;;;;;36.47;11.57;;;13.40;1.00;;;;;;4999591;28;20196;-62
2022/10/02 05:49:59;;;;;;;34.10;10.23;;;13.40;1.00;;;;;;4982757;28;20205;-62
2022/10/02 05:52:41;;;;;;;29.60;9.30;;;13.40;1.00;;;;;;5000565;28;20227;-61
2022/10/02 05:55:26;;;;;;;39.03;12.00;;;13.40;1.00;;;;;;5000377;28;20196;-62
2022/10/02 05:58:18;;;;;;;37.50;9.73;;;13.50;1.00;;;;;;5006267;28;20205;-62
2022/10/02 06:00:52;;;;;;;35.80;9.33;;;13.50;1.00;;;;;;5014164;28;20212;-62
2022/10/02 06:03:37;;;;;;;28.33;7.93;;;13.60;99.90;;;;;;4999892;28;20205;-62
2022/10/02 06:06:20;;;;;;;29.77;9.10;;;13.60;71.30;;;;;;5005886;28;20208;-62
2022/10/02 06:08:59;;;;;;;34.20;7.77;;;13.60;1.00;;;;;;4999584;28;20193;-62
2022/10/02 06:11:32;;;;;;;31.90;8.10;;;13.60;1.00;;;;;;5000268;28;20284;-62
2022/10/02 06:14:11;;;;;;;30.47;7.30;;;13.60;1.00;;;;;;5003020;28;20256;-62
2022/10/02 06:16:46;;;;;;;32.10;8.07;;;13.60;1.00;;;;;;4994934;28;20756;-62
2022/10/02 06:19:32;;;;;;;30.27;7.70;;;13.70;1.00;;;;;;4999839;28;20190;-62
2022/10/02 06:22:23;;;;;;;26.50;6.67;;;13.70;1.00;;;;;;4997116;28;20208;-62
2022/10/02 06:24:53;;;;;;;25.97;6.87;;;13.80;1.00;;;;;;5005949;28;20193;-62
2022/10/02 06:27:42;;;;;;;26.97;7.10;;;13.80;1.00;;;;;;5022686;28;20617;-62
2022/10/02 06:30:13;;;;;;;24.20;6.80;;;13.80;1.00;;;;;;5021648;28;20825;-62
2022/10/02 06:32:57;;;;;;;21.33;6.60;;;13.80;99.90;;;;;;5039177;28;20640;-62
2022/10/02 06:35:53;;;;;;;26.43;6.67;;;13.80;99.90;;;;;;5037536;28;20195;-63
2022/10/02 06:38:41;;;;;;;24.73;6.13;;;13.80;99.90;;;;;;5002425;28;20818;-63
2022/10/02 06:41:14;;;;;;;21.20;5.97;;;13.90;99.90;;;;;;5039717;28;20719;-61
2022/10/02 06:44:12;;;;;;;27.23;6.30;;;13.90;15.80;;;;;;5039235;28;20215;-61
2022/10/02 06:47:22;;;;;;;19.97;5.80;;;13.90;1.00;;;;;;5039736;28;20284;-63
2022/10/02 06:49:58;;;;;;;22.23;6.07;;;14.00;1.00;;;;;;4998128;28;20242;-63
2022/10/02 06:52:30;;;;;;;18.50;5.73;;;14.20;1.00;;;;;;5037801;28;20587;-62
2022/10/02 06:55:31;;;;;;;21.67;4.87;;;14.30;21.40;;;;;;5025943;28;20264;-62
2022/10/02 06:58:22;;;;;;;16.30;4.95;;;14.40;1.00;;;;;;5037864;28;20470;-62
2022/10/02 07:01:01;;;;;;;16.27;4.43;;;14.50;1.00;;;;;;5019660;28;20192;-63
2022/10/02 07:03:34;;;;;;;17.45;4.75;;;14.60;1.00;;;;;;5038974;28;20743;-62
2022/10/02 07:06:32;;;;;;;18.63;4.40;;;14.70;1.00;;;;;;5027534;28;20588;-63
2022/10/02 07:09:21;;;;;;;11.77;3.83;;;14.70;99.90;;;;;;5026181;28;20199;-62
2022/10/02 07:12:07;;;;;;;13.50;4.53;;;14.70;99.90;;;;;;5020072;28;20196;-61
2022/10/02 07:15:04;;;;;;;14.65;3.90;;;14.70;99.90;;;;;;5028909;28;20196;-63
2022/10/02 07:17:56;;;;;;;18.23;4.82;;;14.60;99.90;;;;;;5035596;28;20235;-63
2022/10/02 07:20:26;;;;;;;13.02;4.05;;;14.70;99.90;;;;;;5034149;28;20240;-61
2022/10/02 07:23:10;;;;;;;9.55;4.07;;;15.10;99.90;;;;;;5037304;28;20223;-61
2022/10/02 07:25:40;;;;;;;12.88;5.43;;;15.30;1.00;;;;;;5020618;28;20202;-60
2022/10/02 07:28:21;;;;;;;13.60;5.65;;;15.30;1.00;;;;;;5035736;28;20199;-60
2022/10/02 07:31:00;;;;;;;10.35;4.95;;;15.20;1.00;;;;;;5018939;28;20196;-61
2022/10/02 07:33:43;;;;;;;11.98;4.78;;;15.10;1.00;;;;;;5033022;28;20255;-61
2022/10/02 07:36:19;;;;;;;14.68;4.60;;;15.10;1.00;;;;;;5026366;28;20223;-61
2022/10/02 07:39:01;;;;;;;17.05;5.38;;;15.10;1.00;;;;;;5039329;28;20290;-62
2022/10/02 07:41:57;;;;;;;12.55;5.05;;;15.00;1.00;;;;;;5035892;28;20223;-60
2022/10/02 07:44:40;;;;;;;15.25;6.03;;;15.10;1.00;;;;;;5020120;28;20318;-60
2022/10/02 07:47:55;;;;;;;15.82;5.78;;;15.00;1.00;;;;;;5037628;28;20252;-61
2022/10/02 07:50:31;;;;;;;16.48;5.10;;;15.00;3.00;;;;;;4987977;28;20295;-61
2022/10/02 07:53:23;;;;;;;12.57;4.80;;;15.10;1.00;;;;;;5038677;28;20187;-61
2022/10/02 07:55:54;;;;;;;15.52;5.60;;;15.40;1.00;;;;;;5021472;28;20206;-63
2022/10/02 07:58:49;;;;;;;13.43;5.15;;;15.70;1.00;;;;;;5036717;28;20187;-63
2022/10/02 08:01:27;;;;;;;12.15;5.13;;;15.90;1.00;;;;;;5016748;28;20635;-61
2022/10/02 08:03:59;;;;;;;12.40;4.78;;;16.10;99.90;;;;;;5018221;28;20219;-62
2022/10/02 08:06:26;;;;;;;10.75;4.90;;;15.60;99.90;;;;;;5036236;28;20655;-61
2022/10/02 08:09:03;;;;;;;10.15;5.20;;;15.40;1.00;;;;;;5019890;28;20204;-61
2022/10/02 08:11:49;;;;;;;15.82;5.60;;;15.40;1.00;;;;;;5037737;28;20195;-62
2022/10/02 08:14:38;;;;;;;16.55;6.40;;;15.40;1.00;;;;;;5039853;28;20201;-62
2022/10/02 08:17:25;;;;;;;14.73;5.60;;;15.60;1.00;;;;;;5040864;28;20283;-63
2022/10/02 08:19:58;;;;;;;16.02;7.28;;;16.00;99.90;;;;;;5020972;28;20203;-61
2022/10/02 08:22:29;;;;;;;14.73;7.38;;;16.00;99.90;;;;;;5021941;28;20483;-61
2022/10/02 08:25:03;;;;;;;18.30;7.15;;;15.90;99.90;;;;;;5038615;28;20242;-61
2022/10/02 08:27:50;;;;;;;11.52;6.22;;;16.00;99.90;;;;;;5043037;28;20622;-61
2022/10/02 08:30:17;;;;;;;14.20;6.68;;;15.90;99.90;;;;;;5042567;28;20238;-62
2022/10/02 08:32:46;;;;;;;23.25;7.88;;;16.10;99.90;;;;;;5018940;28;20214;-61
2022/10/02 08:35:15;;;;;;;20.40;7.10;;;16.20;99.90;;;;;;5035119;28;20196;-60
2022/10/02 08:37:45;;;;;;;17.95;7.40;;;16.20;99.90;;;;;;5040305;28;20191;-61
2022/10/02 08:40:21;;;;;;;16.13;6.85;;;16.40;99.90;;;;;;5040404;28;20587;-63
2022/10/02 08:43:16;;;;;;;26.75;8.10;;;16.30;99.90;;;;;;5021499;28;20196;-62
2022/10/02 08:46:14;;;;;;;13.43;7.07;;;16.40;99.90;;;;;;5024814;28;20207;-61
2022/10/02 08:49:26;;;;;;;19.10;7.57;;;16.70;99.90;;;;;;5039897;28;20184;-63
2022/10/02 08:52:17;;;;;;;14.20;7.25;;;16.60;99.90;;;;;;5037294;28;20196;-63
2022/10/02 08:54:50;;;;;;;20.77;6.45;;;16.70;99.90;;;;;;5023679;28;20266;-61
2022/10/02 08:58:02;;;;;;;14.77;6.13;;;17.30;16.00;;;;;;5038736;28;20653;-61
2022/10/02 09:00:35;;;;;;;14.77;6.18;;;17.70;1.00;;;;;;5005175;28;20251;-63
2022/10/02 09:03:17;;;;;;;14.73;7.03;;;17.80;1.00;;;;;;5038144;28;20192;-62
2022/10/02 09:05:54;;;;;;;13.55;6.20;;;17.70;1.00;;;;;;5036094;28;20621;-63
2022/10/02 09:08:41;;;;;;;13.88;5.63;;;18.20;1.00;;;;;;5036951;28;20860;-63
2022/10/02 09:11:45;;;;;;;11.95;5.90;;;18.50;1.00;;;;;;5036511;28;20242;-62
2022/10/02 09:14:33;;;;;;;15.27;6.80;;;18.00;1.00;;;;;;5038091;28;20206;-63
2022/10/02 09:17:31;;;;;;;17.55;6.72;;;17.60;1.00;;;;;;5036891;28;21040;-63
2022/10/02 09:20:20;;;;;;;19.20;6.25;;;17.90;1.00;;;;;;5021346;28;20196;-63
2022/10/02 09:23:14;;;;;;;17.88;5.75;;;19.20;1.00;;;;;;5040459;28;20749;-63
2022/10/02 09:26:26;;;;;;;12.25;5.25;;;19.90;1.00;;;;;;5053225;28;20224;-61
2022/10/02 09:29:41;;;;;;;15.55;5.43;;;20.90;1.00;;;;;;5026840;28;20227;-63
2022/10/02 09:32:33;;;;;;;15.15;4.82;;;21.80;1.00;;;;;;5034331;28;20195;-61
2022/10/02 09:35:03;;;;;;;12.77;4.03;;;21.90;1.00;;;;;;5033477;28;20246;-63
2022/10/02 09:37:38;;;;;;;15.30;5.05;;;21.30;1.00;;;;;;5021865;28;20211;-63
2022/10/02 09:40:43;;;;;;;11.88;3.95;;;22.00;1.00;;;;;;5038825;28;20205;-63
2022/10/02 09:43:42;;;;;;;10.30;4.20;;;22.80;1.00;;;;;;5026320;28;20210;-63
2022/10/02 09:46:34;;;;;;;12.50;4.28;;;22.70;1.00;;;;;;5033530;28;20655;-62
2022/10/02 09:49:20;;;;;;;12.20;3.85;;;21.40;1.00;;;;;;5025684;28;20208;-62
2022/10/02 09:52:26;;;;;;;13.35;3.67;;;21.10;1.00;;;;;;5021337;28;20187;-61
2022/10/02 09:55:21;;;;;;;11.73;3.65;;;21.40;1.00;;;;;;5036094;28;20203;-62
2022/10/02 09:58:19;;;;;;;13.45;3.35;;;21.20;1.00;;;;;;5025113;28;20235;-63
2022/10/02 10:01:00;;;;;;;14.63;4.22;;;20.10;1.00;;;;;;5024858;28;20566;-63
2022/10/02 10:03:42;;;;;;;11.52;3.65;;;19.30;1.00;;;;;;5039327;28;20200;-62
2022/10/02 10:06:39;;;;;;;13.63;4.82;;;18.70;1.00;;;;;;5035448;28;20215;-63
2022/10/02 10:09:25;;;;;;;14.93;4.32;;;18.20;1.00;;;;;;5024368;28;20275;-63
2022/10/02 10:12:04;;;;;;;11.43;3.80;;;18.10;1.00;;;;;;5036732;28;20257;-63
2022/10/02 10:15:05;;;;;;;16.55;4.13;;;18.00;1.00;;;;;;5041882;28;20195;-62
2022/10/02 10:18:00;;;;;;;13.85;5.00;;;17.80;1.00;;;;;;5011144;28;20223;-61
2022/10/02 10:20:53;;;;;;;14.30;3.70;;;17.80;1.00;;;;;;5038784;28;20261;-63
2022/10/02 10:23:30;;;;;;;15.38;3.88;;;21.70;1.00;;;;;;5038597;28;20192;-63
2022/10/02 10:26:35;;;;;;;12.43;4.03;;;24.20;1.00;;;;;;5034860;28;20219;-62
2022/10/02 10:29:27;;;;;;;9.75;3.55;;;25.40;1.00;;;;;;4999314;28;20216;-64
2022/10/02 10:31:57;;;;;;;14.02;4.10;;;26.10;1.00;;;;;;5021530;28;20214;-61
2022/10/02 10:34:59;;;;;;;11.77;4.30;;;25.80;1.00;;;;;;5037700;28;20236;-60
2022/10/02 10:40:50;;;;;;;11.60;3.15;;;23.50;1.00;;;;;;5048071;28;23820;-61
2022/10/02 10:43:26;;;;;;;9.45;3.58;;;23.00;1.00;;;;;;5010265;28;20200;-59
2022/10/02 10:46:31;;;;;;;11.23;3.88;;;23.60;1.00;;;;;;5037551;28;20192;-60
2022/10/02 10:49:13;;;;;;;9.80;4.07;;;22.10;1.00;;;;;;4994025;28;20204;-60
2022/10/02 10:52:12;;;;;;;11.32;3.25;;;21.10;1.00;;;;;;5035171;28;20233;-61
2022/10/02 10:55:01;;;;;;;12.10;4.35;;;20.30;1.00;;;;;;4988192;28;20207;-60
2022/10/02 10:57:37;;;;;;;12.52;5.32;;;20.70;1.00;;;;;;5038888;28;20208;-62
2022/10/02 11:00:21;;;;;;;11.57;3.75;;;22.90;1.00;;;;;;5040422;28;20197;-61
2022/10/02 11:03:10;;;;;;;9.23;2.97;;;24.00;1.00;;;;;;5041752;28;20223;-61
2022/10/02 11:05:45;;;;;;;10.43;3.63;;;25.30;1.00;;;;;;5039076;28;20216;-64
2022/10/02 11:08:30;;;;;;;10.57;3.42;;;25.30;1.00;;;;;;5038052;28;20191;-62
2022/10/02 11:11:09;;;;;;;9.65;3.67;;;26.60;1.00;;;;;;5040287;28;20187;-62
2022/10/02 11:14:00;;;;;;;9.38;3.13;;;26.60;1.00;;;;;;5034418;28;20615;-62
2022/10/02 11:16:36;;;;;;;9.00;3.53;;;27.90;1.00;;;;;;5026312;28;20204;-62
2022/10/02 11:19:18;;;;;;;8.73;3.33;;;27.50;1.00;;;;;;5039168;28;20252;-60
2022/10/02 11:22:00;;;;;;;10.65;3.58;;;28.70;1.00;;;;;;5033390;28;20394;-62
2022/10/02 11:24:54;;;;;;;8.10;3.20;;;29.30;1.00;;;;;;5046501;28;20221;-60
2022/10/02 11:27:38;;;;;;;7.35;3.65;;;28.80;1.00;;;;;;5035417;28;20611;-62
2022/10/02 11:30:22;;;;;;;7.45;3.47;;;29.00;1.00;;;;;;5049878;28;20199;-61
2022/10/02 11:33:15;;;;;;;9.68;3.17;;;29.10;1.00;;;;;;5037370;28;20830;-61
2022/10/02 11:35:56;;;;;;;7.95;2.75;;;26.70;1.00;;;;;;5020428;28;20204;-66
2022/10/02 11:38:40;;;;;;;7.18;3.30;;;24.10;1.00;;;;;;5051575;28;20609;-61
2022/10/02 11:41:21;;;;;;;7.60;2.80;;;22.70;1.00;;;;;;5035355;28;20557;-61
2022/10/02 11:44:09;;;;;;;10.07;2.90;;;21.80;1.00;;;;;;5036398;28;20402;-62
2022/10/02 11:47:01;;;;;;;8.85;2.70;;;21.00;1.00;;;;;;5052633;28;20304;-61
2022/10/02 11:49:40;;;;;;;9.85;2.42;;;20.90;1.00;;;;;;5039001;28;20200;-63
2022/10/02 11:52:23;;;;;;;9.88;2.90;;;21.50;1.00;;;;;;5027640;28;20188;-63
2022/10/02 11:55:21;;;;;;;7.38;2.50;;;22.60;1.00;;;;;;5041551;28;20196;-59
2022/10/02 11:58:09;;;;;;;6.20;2.20;;;22.30;1.00;;;;;;5023467;28;20199;-61
2022/10/02 12:00:55;;;;;;;13.93;3.35;;;21.70;1.00;;;;;;5039663;28;20675;-62
2022/10/02 12:03:43;;;;;;;8.95;2.10;;;21.30;1.00;;;;;;4996301;28;20299;-59
2022/10/02 12:06:19;;;;;;;6.70;1.95;;;21.00;1.00;;;;;;5017779;28;20273;-60
2022/10/02 12:09:35;;;;;;;8.52;2.65;;;21.40;1.00;;;;;;5037717;28;20199;-61
2022/10/02 12:12:11;;;;;;;8.45;2.45;;;22.80;1.00;;;;;;5018946;28;20243;-62
2022/10/02 12:14:47;;;;;;;5.45;2.05;;;23.90;1.00;;;;;;5039604;28;20310;-61
2022/10/02 12:17:51;;;;;;;9.30;2.15;;;24.40;1.00;;;;;;5035173;28;20191;-59
2022/10/02 12:26:58;;;;;;;4.95;2.42;;;23.50;1.00;;;;;;5035410;28;20297;-61
2022/10/02 12:29:59;;;;;;;7.15;2.58;;;23.30;1.00;;;;;;5021220;28;20196;-63
2022/10/02 12:32:56;;;;;;;9.77;2.65;;;22.20;1.00;;;;;;5018091;28;20198;-63
2022/10/02 12:35:43;;;;;;;6.80;2.22;;;21.50;1.00;;;;;;5020705;28;20191;-60
2022/10/02 12:38:37;;;;;;;8.10;2.22;;;21.00;1.00;;;;;;5037086;28;20215;-60
2022/10/02 12:41:12;;;;;;;5.95;1.75;;;20.30;1.00;;;;;;5040205;28;20222;-61
2022/10/02 12:43:54;;;;;;;6.90;2.20;;;20.00;1.00;;;;;;5027556;28;20318;-61
2022/10/02 12:46:37;;;;;;;6.40;1.92;;;19.70;1.00;;;;;;5038015;28;21256;-58
2022/10/02 12:49:26;;;;;;;5.65;2.03;;;19.40;1.00;;;;;;5037695;28;20219;-61
2022/10/02 12:52:22;;;;;;;7.13;2.30;;;19.80;1.00;;;;;;5035183;28;20189;-62
2022/10/02 12:55:01;;;;;;;8.90;2.30;;;20.40;1.00;;;;;;5027078;28;20207;-60
2022/10/02 12:58:01;;;;;;;9.65;2.60;;;20.30;1.00;;;;;;5034850;28;20231;-60
2022/10/02 13:00:59;;;;;;;10.27;2.40;;;20.00;1.00;;;;;;5008191;28;20219;-60
2022/10/02 13:03:54;;;;;;;6.47;2.33;;;19.90;1.00;;;;;;5028016;28;20875;-60
2022/10/02 13:06:20;;;;;;;5.93;2.50;;;20.20;1.00;;;;;;5009638;28;20227;-62
2022/10/02 13:09:15;;;;;;;5.57;2.40;;;20.80;1.00;;;;;;5021328;28;20222;-60
2022/10/02 13:12:07;;;;;;;7.90;2.53;;;20.90;1.00;;;;;;5041045;28;20278;-60
2022/10/02 13:15:24;;;;;;;6.28;2.88;;;20.60;1.00;;;;;;5039018;28;20291;-60
2022/10/02 13:17:54;;;;;;;6.40;2.63;;;20.50;1.00;;;;;;5010216;28;21182;-60
2022/10/02 13:20:46;;;;;;;7.45;2.35;;;20.40;1.00;;;;;;5044238;28;20291;-59
2022/10/02 13:23:30;;;;;;;8.73;2.35;;;20.40;1.00;;;;;;5041817;28;20209;-59
2022/10/02 13:26:34;;;;;;;7.85;2.47;;;20.40;1.00;;;;;;5040933;28;20250;-60
2022/10/02 13:29:01;;;;;;;7.82;2.63;;;20.40;1.00;;;;;;5041054;28;20992;-60
2022/10/02 13:31:46;;;;;;;6.22;2.22;;;20.20;1.00;;;;;;5041577;28;20737;-59
2022/10/02 13:34:41;;;;;;;10.90;2.03;;;20.20;1.00;;;;;;5040588;28;20678;-62
2022/10/02 13:37:33;;;;;;;7.10;1.92;;;20.00;1.00;;;;;;5040897;28;20200;-62
2022/10/02 13:40:21;;;;;;;11.77;3.85;;;19.80;1.00;;;;;;5043592;28;20220;-58
2022/10/02 13:43:00;;;;;;;8.30;2.20;;;19.60;1.00;;;;;;5041412;28;20192;-62
2022/10/02 13:46:16;;;;;;;6.57;2.05;;;19.40;1.00;;;;;;5039688;28;20295;-59
2022/10/02 13:48:46;;;;;;;7.65;2.00;;;19.20;1.00;;;;;;4980200;28;20269;-62
2022/10/02 13:51:30;;;;;;;6.53;2.00;;;19.20;1.00;;;;;;4966795;28;20199;-58
2022/10/02 13:54:15;;;;;;;5.90;1.92;;;19.10;1.00;;;;;;5012965;28;20207;-58
2022/10/02 13:57:19;;;;;;;9.68;2.22;;;18.90;1.00;;;;;;5040775;28;20302;-62
2022/10/02 13:59:51;;;;;;;7.40;2.10;;;18.60;1.00;;;;;;5037395;28;20265;-61
2022/10/02 14:03:03;;;;;;;7.95;1.83;;;18.50;1.00;;;;;;5041991;28;20196;-60
2022/10/02 14:05:48;;;;;;;8.05;2.15;;;18.40;1.00;;;;;;5029727;28;20306;-61
2022/10/02 14:08:35;;;;;;;10.23;2.65;;;18.20;1.00;;;;;;5039015;28;20723;-61
2022/10/02 14:11:05;;;;;;;12.90;3.10;;;18.30;1.00;;;;;;5011221;28;20742;-61
2022/10/02 14:13:52;;;;;;;8.88;5.45;;;18.40;1.00;;;;;;5037734;28;20254;-60
2022/10/02 14:16:25;;;;;;;7.88;2.45;;;18.50;1.00;;;;;;5024554;28;20665;-60